createdAt,value
2022-09-02T00:00:06.836Z,98692.38
2022-09-02T00:02:57.292Z,98694.09
2022-09-02T00:05:46.288Z,98690.78
2022-09-02T00:08:34.681Z,98692.16
2022-09-02T00:11:27.567Z,98694.06
2022-09-02T00:14:19.557Z,98694.75
2022-09-02T00:17:09.535Z,98701.84
2022-09-02T00:19:57.837Z,98707.66
2022-09-02T00:22:46.353Z,98701.34
2022-09-02T00:25:35.123Z,98701.44
2022-09-02T00:28:23.619Z,98693.97
2022-09-02T00:31:12.692Z,98699.72
2022-09-02T00:34:02.486Z,98699.13
2022-09-02T00:36:50.887Z,98697.13
2022-09-02T00:39:40.155Z,98706.44
2022-09-02T00:42:28.748Z,98694.19
2022-09-02T00:45:18.309Z,98688.72
2022-09-02T00:48:07.337Z,98685.63
2022-09-02T00:50:57.276Z,98690.69
2022-09-02T00:53:47.789Z,98682.69
2022-09-02T00:56:39.516Z,98691.56
2022-09-02T00:59:38.022Z,98683.25
2022-09-02T01:02:29.092Z,98688.81
2022-09-02T01:05:20.221Z,98686.47
2022-09-02T01:08:10.038Z,98691.56
2022-09-02T01:10:58.826Z,98691.06
2022-09-02T01:13:47.270Z,98691.25
2022-09-02T01:16:42.327Z,98690.50
2022-09-02T01:19:35.932Z,98679.84
2022-09-02T01:22:28.580Z,98695.31
2022-09-02T01:25:20.328Z,98688.41
2022-09-02T01:28:14.674Z,98688.91
2022-09-02T01:31:03.362Z,98687.34
2022-09-02T01:33:51.755Z,98685.81
2022-09-02T01:36:43.644Z,98691.81
2022-09-02T01:39:33.469Z,98691.81
2022-09-02T01:42:22.637Z,98694.25
2022-09-02T01:45:11.864Z,98697.78
2022-09-02T01:48:00.361Z,98693.91
2022-09-02T01:50:50.916Z,98695.25
2022-09-02T01:53:39.301Z,98693.16
2022-09-02T01:56:30.096Z,98691.19
2022-09-02T01:59:21.038Z,98685.34
2022-09-02T02:02:09.454Z,98684.28
2022-09-02T02:04:58.141Z,98696.63
2022-09-02T02:07:48.175Z,98688.16
2022-09-02T02:10:36.938Z,98698.75
2022-09-02T02:13:28.258Z,98687.41
2022-09-02T02:16:17.801Z,98693.44
2022-09-02T02:19:07.089Z,98695.50
2022-09-02T02:21:55.860Z,98699.84
2022-09-02T02:24:44.247Z,98699.75
2022-09-02T02:27:32.631Z,98693.44
2022-09-02T02:30:26.480Z,98687.34
2022-09-02T02:33:15.375Z,98693.88
2022-09-02T02:36:04.848Z,98686.28
2022-09-02T02:38:53.264Z,98694.38
2022-09-02T02:41:44.885Z,98689.31
2022-09-02T02:44:35.113Z,98683.94
2022-09-02T02:47:26.930Z,98674.59
2022-09-02T02:50:19.481Z,98670.91
2022-09-02T02:53:08.887Z,98670.22
2022-09-02T02:56:01.949Z,98669.66
2022-09-02T02:58:50.484Z,98663.53
2022-09-02T03:01:39.236Z,98665.25
2022-09-02T03:04:29.314Z,98666.81
2022-09-02T03:07:18.482Z,98666.81
2022-09-02T03:10:09.650Z,98672.75
2022-09-02T03:13:00.556Z,98666.81
2022-09-02T03:15:49.555Z,98670.75
2022-09-02T03:18:38.001Z,98670.59
2022-09-02T03:21:27.736Z,98674.47
2022-09-02T03:24:16.293Z,98680.50
2022-09-02T03:27:05.158Z,98671.63
2022-09-02T03:29:53.761Z,98667.41
2022-09-02T03:32:42.769Z,98675.19
2022-09-02T03:35:31.643Z,98673.59
2022-09-02T03:38:21.609Z,98678.72
2022-09-02T03:41:09.961Z,98672.63
2022-09-02T03:44:00.663Z,98671.50
2022-09-02T03:46:50.403Z,98678.09
2022-09-02T03:49:38.869Z,98678.66
2022-09-02T03:52:27.540Z,98679.31
2022-09-02T03:55:19.412Z,98684.53
2022-09-02T03:58:08.707Z,98687.84
2022-09-02T04:00:59.532Z,98680.94
2022-09-02T04:03:48.680Z,98687.31
2022-09-02T04:06:38.918Z,98692.28
2022-09-02T04:09:27.529Z,98695.88
2022-09-02T04:12:17.274Z,98701.81
2022-09-02T04:15:08.224Z,98696.03
2022-09-02T04:17:57.029Z,98702.94
2022-09-02T04:20:45.999Z,98704.81
2022-09-02T04:23:36.840Z,98706.88
2022-09-02T04:26:25.838Z,98706.59
2022-09-02T04:29:18.001Z,98709.16
2022-09-02T04:32:09.308Z,98713.56
2022-09-02T04:34:57.977Z,98721.97
2022-09-02T04:37:49.145Z,98718.16
2022-09-02T04:40:40.641Z,98715.53
2022-09-02T04:43:29.163Z,98713.75
2022-09-02T04:46:22.858Z,98717.81
2022-09-02T04:49:22.914Z,98713.88
2022-09-02T04:52:14.774Z,98719.50
2022-09-02T04:55:03.293Z,98713.59
2022-09-02T04:57:53.217Z,98718.44
2022-09-02T05:00:43.147Z,98716.78
2022-09-02T05:03:35.258Z,98722.94
2022-09-02T05:06:26.364Z,98720.94
2022-09-02T05:09:17.306Z,98721.69
2022-09-02T05:12:10.050Z,98718.50
2022-09-02T05:15:05.760Z,98714.09
2022-09-02T05:17:55.954Z,98714.53
2022-09-02T05:20:45.680Z,98711.69
2022-09-02T05:23:34.774Z,98717.72
2022-09-02T05:26:23.773Z,98721.56
2022-09-02T05:29:14.386Z,98716.84
2022-09-02T05:32:08.202Z,98709.91
2022-09-02T05:34:59.087Z,98718.44
2022-09-02T05:37:48.880Z,98710.31
2022-09-02T05:40:38.156Z,98707.28
2022-09-02T05:43:28.452Z,98714.78
2022-09-02T05:46:18.909Z,98712.31
2022-09-02T05:49:07.670Z,98707.91
2022-09-02T05:52:19.310Z,98712.50
2022-09-02T05:55:12.499Z,98715.16
2022-09-02T05:58:01.771Z,98713.16
2022-09-02T06:00:50.135Z,98726.19
2022-09-02T06:03:39.233Z,98725.31
2022-09-02T06:06:29.738Z,98718.00
2022-09-02T06:09:22.170Z,98720.06
2022-09-02T06:12:13.174Z,98717.84
2022-09-02T06:15:03.079Z,98714.00
2022-09-02T06:17:51.579Z,98719.06
2022-09-02T06:20:41.718Z,98716.13
2022-09-02T06:23:30.997Z,98719.91
2022-09-02T06:26:23.324Z,98724.03
2022-09-02T06:29:13.656Z,98724.31
2022-09-02T06:32:02.267Z,98726.09
2022-09-02T06:34:55.335Z,98730.16
2022-09-02T06:37:46.328Z,98727.16
2022-09-02T06:40:35.338Z,98728.66
2022-09-02T06:43:24.199Z,98736.25
2022-09-02T06:46:30.664Z,98729.66
2022-09-02T06:49:22.351Z,98733.72
2022-09-02T06:52:14.397Z,98728.91
2022-09-02T06:55:04.959Z,98738.25
2022-09-02T06:57:53.771Z,98731.19
2022-09-02T07:00:43.206Z,98743.09
2022-09-02T07:03:51.514Z,98733.66
2022-09-02T07:06:42.238Z,98732.63
2022-09-02T07:09:32.121Z,98738.44
2022-09-02T07:12:28.071Z,98733.09
2022-09-02T07:15:27.596Z,98734.09
2022-09-02T07:18:16.094Z,98740.38
2022-09-02T07:21:06.053Z,98732.81
2022-09-02T07:23:54.571Z,98726.94
2022-09-02T07:26:44.142Z,98727.69
2022-09-02T07:29:34.587Z,98728.72
2022-09-02T07:32:23.173Z,98726.03
2022-09-02T07:35:11.713Z,98738.09
2022-09-02T07:38:01.698Z,98729.03
2022-09-02T07:40:50.824Z,98731.03
2022-09-02T07:43:49.607Z,98737.25
2022-09-02T07:46:40.502Z,98732.91
2022-09-02T07:50:15.228Z,98733.84
2022-09-02T07:52:38.940Z,98730.41
2022-09-02T07:55:31.032Z,98737.78
2022-09-02T07:58:22.487Z,98725.06
2022-09-02T08:01:12.043Z,98726.03
2022-09-02T08:04:05.608Z,98721.13
2022-09-02T08:06:57.275Z,98724.09
2022-09-02T08:09:45.673Z,98722.72
2022-09-02T08:12:35.509Z,98720.81
2022-09-02T08:15:24.581Z,98726.88
2022-09-02T08:18:21.106Z,98723.50
2022-09-02T08:21:11.090Z,98726.41
2022-09-02T08:24:00.506Z,98725.41
2022-09-02T08:26:49.036Z,98722.78
2022-09-02T08:29:38.893Z,98722.94
2022-09-02T08:32:27.204Z,98715.69
2022-09-02T08:35:15.640Z,98723.00
2022-09-02T08:38:06.486Z,98719.63
2022-09-02T08:40:54.885Z,98719.25
2022-09-02T08:43:45.735Z,98712.97
2022-09-02T08:46:36.461Z,98714.41
2022-09-02T08:49:31.175Z,98717.28
2022-09-02T08:52:29.508Z,98714.88
2022-09-02T08:55:22.507Z,98718.22
2022-09-02T08:58:11.592Z,98707.56
2022-09-02T09:01:06.768Z,98705.97
2022-09-02T09:04:12.249Z,98699.00
2022-09-02T09:07:25.637Z,98700.97
2022-09-02T09:10:21.614Z,98698.25
2022-09-02T09:13:21.270Z,98687.13
2022-09-02T09:16:20.751Z,98688.16
2022-09-02T09:19:13.819Z,98690.50
2022-09-02T09:22:03.579Z,98686.34
2022-09-02T09:24:52.410Z,98692.44
2022-09-02T09:27:41.164Z,98686.75
2022-09-02T09:30:30.541Z,98690.28
2022-09-02T09:33:24.107Z,98680.50
2022-09-02T09:36:14.262Z,98683.13
2022-09-02T09:39:21.138Z,98689.31
2022-09-02T09:42:15.250Z,98687.34
2022-09-02T09:45:20.227Z,98687.13
2022-09-02T09:48:27.599Z,98678.25
2022-09-02T09:51:17.426Z,98677.16
2022-09-02T09:54:20.543Z,98678.59
2022-09-02T09:57:18.724Z,98676.97
2022-09-02T10:00:22.106Z,98678.34
2022-09-02T10:03:23.487Z,98664.94
2022-09-02T10:06:22.341Z,98667.63
2022-09-02T10:09:35.757Z,98664.00
2022-09-02T10:12:33.314Z,98659.38
2022-09-02T10:15:30.418Z,98662.91
2022-09-02T10:18:29.863Z,98659.06
2022-09-02T10:21:33.382Z,98651.06
2022-09-02T10:24:36.858Z,98653.19
2022-09-02T10:27:34.125Z,98649.13
2022-09-02T10:30:23.958Z,98646.63
2022-09-02T10:33:25.766Z,98643.75
2022-09-02T10:36:28.748Z,98637.56
2022-09-02T10:39:30.525Z,98637.03
2022-09-02T10:42:29.411Z,98628.50
2022-09-02T10:45:25.150Z,98632.28
2022-09-02T10:48:28.990Z,98636.06
2022-09-02T10:51:24.941Z,98626.97
2022-09-02T10:54:31.024Z,98621.81
2022-09-02T10:57:26.287Z,98630.69
2022-09-02T11:00:17.352Z,98627.50
2022-09-02T11:03:18.225Z,98624.19
2022-09-02T11:06:13.091Z,98632.56
2022-09-02T11:09:07.548Z,98621.88
2022-09-02T11:12:01.761Z,98630.09
2022-09-02T11:15:00.463Z,98625.00
2022-09-02T11:17:57.378Z,98622.22
2022-09-02T11:20:51.983Z,98617.38
2022-09-02T11:23:45.831Z,98623.56
2022-09-02T11:26:40.560Z,98624.06
2022-09-02T11:29:38.608Z,98622.38
2022-09-02T11:32:33.399Z,98617.78
2022-09-02T11:35:27.542Z,98618.53
2022-09-02T11:38:32.166Z,98614.06
2022-09-02T11:41:35.812Z,98604.59
2022-09-02T11:45:02.703Z,98595.13
2022-09-02T11:48:33.333Z,98591.75
2022-09-02T11:51:40.270Z,98595.84
2022-09-02T11:54:34.765Z,98597.56
2022-09-02T11:57:25.925Z,98600.63
2022-09-02T12:00:31.672Z,98607.22
2022-09-02T12:03:46.643Z,98603.13
2022-09-02T12:06:39.538Z,98609.81
2022-09-02T12:13:08.134Z,98599.91
2022-09-02T12:16:30.070Z,98603.59
2022-09-02T12:19:26.773Z,98594.34
2022-09-02T12:22:38.385Z,98587.84
2022-09-02T12:25:43.217Z,98582.28
2022-09-02T12:28:32.097Z,98577.47
2022-09-02T12:31:42.072Z,98576.56
2022-09-02T12:34:56.776Z,98580.41
2022-09-02T12:37:59.561Z,98579.84
2022-09-02T12:40:57.024Z,98571.13
2022-09-02T12:43:54.220Z,98563.81
2022-09-02T12:46:55.741Z,98573.34
2022-09-02T12:49:53.609Z,98558.75
2022-09-02T12:52:45.734Z,98558.94
2022-09-02T12:55:36.907Z,98553.69
2022-09-02T12:58:25.907Z,98555.75
2022-09-02T13:01:19.029Z,98550.47
2022-09-02T13:04:37.339Z,98548.81
2022-09-02T13:08:02.921Z,98551.22
2022-09-02T13:11:39.967Z,98557.81
2022-09-02T13:15:06.022Z,98550.50
2022-09-02T13:18:33.891Z,98555.16
2022-09-02T13:21:49.298Z,98546.13
2022-09-02T13:25:08.247Z,98554.19
2022-09-02T13:28:15.000Z,98546.31
2022-09-02T13:31:14.038Z,98543.13
2022-09-02T13:34:05.560Z,98546.00
2022-09-02T13:36:54.184Z,98541.13
2022-09-02T13:39:42.538Z,98537.72
2022-09-02T13:42:32.763Z,98535.66
2022-09-02T13:45:24.572Z,98527.25
2022-09-02T13:48:27.182Z,98536.88
2022-09-02T13:51:17.380Z,98541.56
2022-09-02T13:54:22.789Z,98541.28
2022-09-02T13:57:14.894Z,98527.78
2022-09-02T14:00:03.804Z,98524.84
2022-09-02T14:03:05.718Z,98518.84
2022-09-02T14:05:57.378Z,98523.88
2022-09-02T14:08:46.286Z,98532.38
2022-09-02T14:11:43.945Z,98515.16
2022-09-02T14:14:32.903Z,98519.38
2022-09-02T14:17:25.894Z,98522.63
2022-09-02T14:20:21.359Z,98534.06
2022-09-02T14:23:17.958Z,98530.94
2022-09-02T14:26:07.150Z,98530.84
2022-09-02T14:28:55.851Z,98515.47
2022-09-02T14:31:45.162Z,98520.00
2022-09-02T14:34:35.882Z,98520.59
2022-09-02T14:37:28.691Z,98516.81
2022-09-02T14:40:17.908Z,98519.44
2022-09-02T14:43:13.650Z,98526.78
2022-09-02T14:46:07.683Z,98527.16
2022-09-02T14:49:04.156Z,98518.03
2022-09-02T14:51:55.412Z,98512.16
2022-09-02T14:54:48.406Z,98501.09
2022-09-02T14:57:39.220Z,98509.84
2022-09-02T15:00:31.384Z,98504.78
2022-09-02T15:03:23.581Z,98508.25
2022-09-02T15:06:15.101Z,98509.84
2022-09-02T15:09:04.277Z,98505.72
2022-09-02T15:11:57.629Z,98506.34
2022-09-02T15:14:49.153Z,98501.53
2022-09-02T15:17:37.553Z,98508.66
2022-09-02T15:20:26.734Z,98502.84
2022-09-02T15:23:17.532Z,98501.72
2022-09-02T15:26:05.880Z,98505.53
2022-09-02T15:28:57.422Z,98497.53
2022-09-02T15:31:46.055Z,98499.22
2022-09-02T15:34:35.499Z,98498.09
2022-09-02T15:37:24.577Z,98499.41
2022-09-02T15:40:13.205Z,98497.44
2022-09-02T15:43:01.993Z,98507.47
2022-09-02T15:45:51.825Z,98500.44
2022-09-02T15:48:40.851Z,98504.72
2022-09-02T15:51:29.561Z,98508.53
2022-09-02T15:54:19.513Z,98507.25
2022-09-02T15:57:07.921Z,98501.50
2022-09-02T15:59:56.327Z,98500.59
2022-09-02T16:02:46.170Z,98501.09
2022-09-02T16:05:34.626Z,98501.03
2022-09-02T16:08:22.993Z,98497.53
2022-09-02T16:11:11.361Z,98495.63
2022-09-02T16:13:59.721Z,98501.31
2022-09-02T16:16:49.376Z,98497.53
2022-09-02T16:19:39.292Z,98489.03
2022-09-02T16:22:27.580Z,98493.22
2022-09-02T16:25:16.068Z,98488.25
2022-09-02T16:28:04.710Z,98493.84
2022-09-02T16:30:53.267Z,98493.47
2022-09-02T16:33:42.613Z,98489.06
2022-09-02T16:36:33.858Z,98499.47
2022-09-02T16:39:22.437Z,98499.19
2022-09-02T16:42:10.819Z,98507.13
2022-09-02T16:44:59.253Z,98504.91
2022-09-02T16:47:47.654Z,98497.03
2022-09-02T16:50:36.056Z,98494.47
2022-09-02T16:53:25.728Z,98496.06
2022-09-02T16:56:14.738Z,98499.63
2022-09-02T16:59:05.422Z,98495.19
2022-09-02T17:01:55.363Z,98490.66
2022-09-02T17:04:43.856Z,98484.09
2022-09-02T17:07:32.200Z,98484.75
2022-09-02T17:10:21.962Z,98483.91
2022-09-02T17:13:10.317Z,98491.56
2022-09-02T17:15:58.716Z,98484.66
2022-09-02T17:18:47.512Z,98492.66
2022-09-02T17:21:37.749Z,98494.59
2022-09-02T17:24:30.810Z,98490.38
2022-09-02T17:27:23.487Z,98492.09
2022-09-02T17:30:13.478Z,98493.38
2022-09-02T17:33:02.085Z,98503.09
2022-09-02T17:35:56.513Z,98499.75
2022-09-02T17:38:45.645Z,98506.78
2022-09-02T17:41:51.485Z,98502.44
2022-09-02T17:44:42.590Z,98501.88
2022-09-02T17:47:31.840Z,98507.03
2022-09-02T17:50:20.262Z,98506.16
2022-09-02T17:53:08.561Z,98503.75
2022-09-02T17:56:06.301Z,98506.84
2022-09-02T17:59:06.103Z,98509.19
2022-09-02T18:02:14.137Z,98506.50
2022-09-02T18:05:09.685Z,98515.34
2022-09-02T18:08:06.021Z,98515.50
2022-09-02T18:10:58.075Z,98517.44
2022-09-02T18:13:58.045Z,98508.44
2022-09-02T18:16:57.860Z,98518.63
2022-09-02T18:19:58.744Z,98515.69
2022-09-02T18:23:18.986Z,98515.16
2022-09-02T18:26:16.267Z,98517.78
2022-09-02T18:29:14.743Z,98512.50
2022-09-02T18:32:13.742Z,98521.22
2022-09-02T18:35:13.081Z,98515.03
2022-09-02T18:38:10.112Z,98521.31
2022-09-02T18:41:10.519Z,98523.56
2022-09-02T18:44:11.383Z,98522.22
2022-09-02T18:47:03.449Z,98530.16
2022-09-02T18:49:56.184Z,98525.84
2022-09-02T18:52:46.037Z,98523.34
2022-09-02T18:55:36.426Z,98517.81
2022-09-02T18:58:35.134Z,98521.19
2022-09-02T19:01:27.362Z,98528.50
2022-09-02T19:04:15.850Z,98521.88
2022-09-02T19:07:30.138Z,98529.19
2022-09-02T19:10:19.895Z,98526.72
2022-09-02T19:13:08.413Z,98522.13
2022-09-02T19:16:02.015Z,98524.22
2022-09-02T19:18:53.697Z,98525.91
2022-09-02T19:21:47.194Z,98516.41
2022-09-02T19:24:42.769Z,98526.91
2022-09-02T19:27:34.974Z,98519.53
2022-09-02T19:30:24.723Z,98517.53
2022-09-02T19:33:14.825Z,98512.69
2022-09-02T19:36:03.566Z,98523.34
2022-09-02T19:38:51.864Z,98528.69
2022-09-02T19:41:40.597Z,98524.63
2022-09-02T19:44:30.692Z,98530.22
2022-09-02T19:50:28.677Z,98538.81
2022-09-02T19:53:25.332Z,98533.78
2022-09-02T19:56:14.384Z,98538.00
2022-09-02T19:59:05.556Z,98535.69
2022-09-02T20:01:56.364Z,98538.69
2022-09-02T20:04:45.017Z,98535.94
2022-09-02T20:07:33.376Z,98538.19
2022-09-02T20:10:27.602Z,98541.50
2022-09-02T20:13:18.015Z,98537.66
2022-09-02T20:16:07.478Z,98537.09
2022-09-02T20:18:57.874Z,98539.34
2022-09-02T20:21:47.494Z,98532.47
2022-09-02T20:24:36.147Z,98535.09
2022-09-02T20:27:40.036Z,98528.53
2022-09-02T20:30:34.244Z,98527.06
2022-09-02T20:33:24.162Z,98527.50
2022-09-02T20:36:26.319Z,98526.91
2022-09-02T20:39:33.427Z,98531.97
2022-09-02T20:42:39.337Z,98533.78
2022-09-02T20:45:33.345Z,98529.47
2022-09-02T20:48:39.582Z,98530.06
2022-09-02T20:51:36.602Z,98531.09
2022-09-02T20:54:36.816Z,98530.59
2022-09-02T20:57:38.460Z,98526.50
2022-09-02T21:00:26.782Z,98528.09
2022-09-02T21:03:17.914Z,98529.66
2022-09-02T21:06:09.198Z,98533.03
2022-09-02T21:09:03.971Z,98531.22
2022-09-02T21:12:00.516Z,98534.00
2022-09-02T21:14:53.494Z,98532.03
2022-09-02T21:17:48.826Z,98534.28
2022-09-02T21:20:44.968Z,98532.03
2022-09-02T21:23:38.616Z,98544.00
2022-09-02T21:26:40.222Z,98541.44
2022-09-02T21:29:33.184Z,98542.72
2022-09-02T21:32:29.662Z,98540.66
2022-09-02T21:35:21.356Z,98546.50
2022-09-02T21:38:15.410Z,98545.78
2022-09-02T21:41:21.682Z,98547.00
2022-09-02T21:44:20.694Z,98547.00
2022-09-02T21:47:20.837Z,98546.25
2022-09-02T21:50:21.895Z,98547.03
2022-09-02T21:53:19.167Z,98542.75
2022-09-02T21:56:24.055Z,98545.00
2022-09-02T21:59:28.476Z,98548.31
2022-09-02T22:02:25.918Z,98544.25
2022-09-02T22:05:27.623Z,98546.53
2022-09-02T22:08:26.169Z,98543.25
2022-09-02T22:11:22.355Z,98549.06
2022-09-02T22:14:15.450Z,98545.28
2022-09-02T22:17:14.555Z,98540.72
2022-09-02T22:20:05.520Z,98546.53
2022-09-02T22:22:58.676Z,98543.50
2022-09-02T22:25:48.767Z,98538.19
2022-09-02T22:28:43.217Z,98544.25
2022-09-02T22:31:36.133Z,98538.19
2022-09-02T22:34:28.289Z,98549.28
2022-09-02T22:37:22.398Z,98544.00
2022-09-02T22:40:14.325Z,98535.91
2022-09-02T22:43:05.816Z,98534.88
2022-09-02T22:46:13.605Z,98536.88
2022-09-02T22:49:26.022Z,98532.09
2022-09-02T22:52:44.756Z,98522.75
2022-09-02T22:55:47.525Z,98525.28
2022-09-02T22:58:58.606Z,98530.31
2022-09-02T23:01:55.882Z,98519.47
2022-09-02T23:04:58.908Z,98531.50
2022-09-02T23:07:48.572Z,98535.06
2022-09-02T23:10:43.729Z,98522.94
2022-09-02T23:13:46.026Z,98521.66
2022-09-02T23:16:48.278Z,98516.13
2022-09-02T23:19:50.135Z,98519.88
2022-09-02T23:23:11.164Z,98516.00
2022-09-02T23:26:10.572Z,98518.78
2022-09-02T23:29:26.074Z,98529.00
2022-09-02T23:32:45.059Z,98527.97
2022-09-02T23:35:39.444Z,98519.16
2022-09-02T23:38:53.586Z,98522.91
2022-09-02T23:41:42.132Z,98519.16
2022-09-02T23:44:31.312Z,98527.03
2022-09-02T23:47:37.778Z,98526.03
2022-09-02T23:50:35.924Z,98520.72
2022-09-02T23:53:25.822Z,98527.56
2022-09-02T23:56:28.721Z,98524.53
2022-09-02T23:59:37.464Z,98530.34
